Terminal Aerodrome Forecast
Issued by NWS Raleigh/Durham, NC

Home | Current Version | Previous Version | Text Only | Print | Product List | Glossary On
Versions: 1 2 3 4 5 6 7 8 9 10 11 12 13 14 15 16 17 18 19 20 21 22 23 24 25
000
FTUS42 KRAH 250540
TAFRDU
TAF
KRDU 250540Z 2506/2606 17006KT P6SM SCT250
      TEMPO 2512/2516 5SM -SHRA BKN015 BKN035
     FM251600 19013G20KT P6SM VCSH BKN025
     FM251800 21014G23KT P6SM VCSH SCT025 BKN035
      TEMPO 2519/2522 2SM TSRA BKN020CB
     FM252300 26008KT P6SM FEW250=

USA.gov is the U.S. government's official web portal to all federal, state and local government web resources and services.